North Bingham, Pennsylvania
Current Conditions -  °F | °C
As of 4:56 PM on Friday 28 Nov 2014 (Local Time) from KELZ Reporting Station
Few Clouds Few Clouds  
Wind Chill:   Ceiling: Unl
Heat Index: 19°   Visibility: 10mi
Dew Point:   Wind: 8mph
Humidity: 62%   Direction: 280°W
Pressure: 30.14"   Gusts: NA
Location:  41.9875°N, 77.7619°W
Report Text: KELZ 282156Z AUTO 28007KT 10SM FEW029 M07/M13 A3014 RMK AO2 SLP241 T10721133
Loading
Personal Weather Stations






























Interactive Weather Map New forecast layout! Learn more

10-Day Weather Forecast

Advertisements
Track Severe Weather on mobile